Time;durP1;ratioP1;P1;durP2;ratioP2;P2;SDS_P1;SDS_P2;PMS_P1;PMS_P2;Temp;Humidity;BMP_temperature;BMP_pressure;BME280_temperature;BME280_humidity;BME280_pressure;Samples;Min_cycle;Max_cycle;Signal;HPM_P1;HPM_P2
2023/08/12 00:02:31;;;;;;;8.40;3.00;;;;;;;11.15;76.58;101130.73;102848;276;97947;-57
2023/08/12 00:05:10;;;;;;;4.80;2.40;;;;;;;11.11;76.56;101127.44;102573;278;121292;-58
2023/08/12 00:07:46;;;;;;;6.30;2.90;;;;;;;11.07;76.71;101128.14;102837;276;105691;-55
2023/08/12 00:10:27;;;;;;;5.00;2.60;;;;;;;11.02;76.76;101129.47;102777;276;112497;-55
2023/08/12 00:13:06;;;;;;;5.80;2.60;;;;;;;10.99;76.76;101132.91;102804;276;96229;-57
2023/08/12 00:15:43;;;;;;;4.90;2.70;;;;;;;11.01;76.84;101134.23;102792;276;97575;-58
2023/08/12 00:18:22;;;;;;;5.60;2.70;;;;;;;11.01;76.88;101136.91;102814;276;119788;-54
2023/08/12 00:21:04;;;;;;;6.40;3.10;;;;;;;10.99;77.00;101133.69;102753;276;105109;-55
2023/08/12 00:23:45;;;;;;;4.40;2.70;;;;;;;10.96;77.17;101134.29;102775;276;114728;-53
2023/08/12 00:26:27;;;;;;;6.40;2.80;;;;;;;10.93;77.24;101135.10;102763;276;94963;-56
2023/08/12 00:29:06;;;;;;;6.30;2.80;;;;;;;10.89;77.36;101129.34;102785;276;98165;-55
2023/08/12 00:31:43;;;;;;;4.00;3.00;;;;;;;10.87;77.27;101130.80;102766;276;121277;-55
2023/08/12 00:34:23;;;;;;;6.30;2.80;;;;;;;10.81;77.45;101134.60;102778;276;104389;-55
2023/08/12 00:37:04;;;;;;;4.40;2.80;;;;;;;10.76;77.66;101131.67;102756;276;113494;-56
2023/08/12 00:39:44;;;;;;;4.60;2.90;;;;;;;10.73;77.67;101131.50;102749;276;95879;-55
2023/08/12 00:42:23;;;;;;;4.70;2.50;;;;;;;10.69;77.78;101132.66;102780;275;95683;-55
2023/08/12 00:45:00;;;;;;;5.90;2.80;;;;;;;10.62;77.97;101134.97;102727;276;121321;-55
2023/08/12 00:47:36;;;;;;;7.60;2.60;;;;;;;10.61;78.06;101135.52;102773;276;105101;-53
2023/08/12 00:50:17;;;;;;;4.80;2.80;;;;;;;10.60;78.04;101133.34;102721;276;114738;-53
2023/08/12 00:52:58;;;;;;;7.00;2.80;;;;;;;10.59;78.22;101133.57;102753;276;96385;-54
2023/08/12 00:55:39;;;;;;;8.00;3.20;;;;;;;10.57;78.39;101127.11;102747;276;98104;-55
2023/08/12 00:58:20;;;;;;;5.00;2.50;;;;;;;10.56;78.39;101128.95;102813;276;121351;-54
2023/08/12 01:01:00;;;;;;;7.70;2.90;;;;;;;10.53;78.43;101129.78;102772;265;105848;-55
2023/08/12 01:03:37;;;;;;;5.30;2.60;;;;;;;10.51;78.54;101128.61;102774;276;114402;-55
2023/08/12 01:06:14;;;;;;;6.10;2.80;;;;;;;10.47;78.57;101129.52;102757;276;97318;-55
2023/08/12 01:08:53;;;;;;;6.20;2.50;;;;;;;10.41;78.80;101128.66;102727;276;96844;-56
2023/08/12 01:11:42;;;;;;;4.70;2.60;;;;;;;10.35;78.85;101124.20;102749;276;120953;-56
2023/08/12 01:14:31;;;;;;;7.10;2.40;;;;;;;10.36;78.94;101124.54;102721;276;105418;-56
2023/08/12 01:17:12;;;;;;;6.90;2.90;;;;;;;10.37;79.08;101122.55;102757;276;114472;-55
2023/08/12 01:19:54;;;;;;;4.20;3.00;;;;;;;10.36;79.19;101126.30;102755;276;97267;-55
2023/08/12 01:22:36;;;;;;;4.70;2.80;;;;;;;10.38;79.37;101126.40;102811;276;98589;-56
2023/08/12 01:25:15;;;;;;;7.80;3.10;;;;;;;10.40;79.28;101127.61;102803;276;121073;-55
2023/08/12 01:27:53;;;;;;;8.70;3.00;;;;;;;10.41;79.22;101126.63;102868;276;106053;-56
2023/08/12 01:30:29;;;;;;;6.20;3.50;;;;;;;10.38;79.34;101123.23;102788;276;112312;-55
2023/08/12 01:33:29;;;;;;;3.50;2.70;;;;;;;10.34;79.43;101123.13;102842;276;96934;-57
2023/08/12 01:36:10;;;;;;;6.10;3.10;;;;;;;10.29;79.52;101122.05;102861;276;96512;-53
2023/08/12 01:39:01;;;;;;;5.50;2.70;;;;;;;10.26;79.53;101123.84;102823;276;121037;-53
2023/08/12 01:41:37;;;;;;;7.00;3.20;;;;;;;10.25;79.50;101126.07;102818;276;104928;-55
2023/08/12 01:44:14;;;;;;;7.00;2.90;;;;;;;10.25;79.70;101127.04;102797;276;114587;-55
2023/08/12 01:46:51;;;;;;;6.00;3.50;;;;;;;10.23;79.65;101128.71;102842;276;94270;-54
2023/08/12 01:49:27;;;;;;;4.80;3.00;;;;;;;10.18;79.80;101127.40;102809;276;97368;-54
2023/08/12 01:52:04;;;;;;;5.50;3.40;;;;;;;10.17;79.70;101130.11;102824;276;121346;-55
2023/08/12 01:54:41;;;;;;;6.90;3.20;;;;;;;10.17;79.77;101129.75;102851;276;104446;-55
2023/08/12 01:57:19;;;;;;;6.70;3.00;;;;;;;10.13;80.01;101129.27;102789;276;114050;-53
2023/08/12 01:59:56;;;;;;;5.60;2.90;;;;;;;10.09;80.13;101130.36;102767;276;97798;-55
2023/08/12 02:02:31;;;;;;;6.70;3.00;;;;;;;10.05;80.20;101126.14;102786;276;98122;-55
2023/08/12 02:05:06;;;;;;;9.20;3.10;;;;;;;10.03;80.06;101126.67;102802;276;120336;-56
2023/08/12 02:07:44;;;;;;;6.60;3.40;;;;;;;10.01;80.18;101131.16;102843;276;105876;-55
2023/08/12 02:10:27;;;;;;;5.80;3.30;;;;;;;9.98;80.19;101134.98;102793;276;113764;-56
2023/08/12 02:13:02;;;;;;;4.70;3.80;;;;;;;9.97;80.36;101131.33;102799;276;95204;-54
2023/08/12 02:15:40;;;;;;;5.90;3.90;;;;;;;9.96;80.23;101128.70;102811;276;98327;-55
2023/08/12 02:18:19;;;;;;;8.20;3.60;;;;;;;9.92;80.55;101129.73;102779;276;120495;-53
2023/08/12 02:21:05;;;;;;;5.60;3.40;;;;;;;9.92;80.45;101123.58;102806;276;104417;-55
2023/08/12 02:23:44;;;;;;;5.80;3.30;;;;;;;9.86;80.66;101126.22;102763;276;115544;-55
2023/08/12 02:26:22;;;;;;;5.80;3.70;;;;;;;9.83;80.72;101133.37;102761;276;98225;-55
2023/08/12 02:28:58;;;;;;;5.70;3.90;;;;;;;9.81;80.70;101134.75;102784;276;95667;-54
2023/08/12 02:31:39;;;;;;;7.20;3.80;;;;;;;9.79;80.70;101135.27;102763;276;121260;-54
2023/08/12 02:34:18;;;;;;;6.60;3.40;;;;;;;9.80;80.61;101133.27;102754;276;105572;-53
2023/08/12 02:36:54;;;;;;;4.40;3.20;;;;;;;9.81;80.67;101133.09;102782;276;114709;-55
2023/08/12 02:39:30;;;;;;;7.00;3.30;;;;;;;9.79;80.90;101133.84;102744;276;95452;-56
2023/08/12 02:42:06;;;;;;;8.20;4.00;;;;;;;9.82;80.93;101135.88;102816;276;97732;-56
2023/08/12 02:44:44;;;;;;;8.50;4.30;;;;;;;9.83;80.95;101132.86;102768;276;119858;-56
2023/08/12 02:47:25;;;;;;;5.70;4.00;;;;;;;9.80;81.05;101135.29;102814;276;105328;-54
2023/08/12 02:50:07;;;;;;;6.50;4.40;;;;;;;9.80;81.09;101138.09;102759;276;112418;-55
2023/08/12 02:52:45;;;;;;;6.30;4.50;;;;;;;9.81;81.15;101137.91;102810;276;96748;-55
2023/08/12 02:55:28;;;;;;;5.30;4.60;;;;;;;9.79;81.18;101135.26;102728;276;97560;-55
2023/08/12 02:58:05;;;;;;;6.30;4.70;;;;;;;9.76;81.31;101138.19;102718;276;119983;-55
2023/08/12 03:00:45;;;;;;;6.10;4.60;;;;;;;9.71;81.40;101142.80;102941;275;105188;-55
2023/08/12 03:03:28;;;;;;;6.10;4.90;;;;;;;9.70;81.52;101141.34;102769;276;114322;-55
2023/08/12 03:06:04;;;;;;;5.20;4.70;;;;;;;9.68;81.50;101143.16;102750;276;95019;-53
2023/08/12 03:08:40;;;;;;;7.80;4.80;;;;;;;9.65;81.58;101147.27;102790;276;96562;-53
2023/08/12 03:11:21;;;;;;;7.50;4.50;;;;;;;9.64;81.70;101150.02;102614;276;119833;-55
2023/08/12 03:14:00;;;;;;;7.80;5.60;;;;;;;9.64;81.79;101155.95;102276;276;548575;-55
2023/08/12 03:16:39;;;;;;;6.80;5.00;;;;;;;9.62;81.90;101155.09;102711;276;114298;-57
2023/08/12 03:19:21;;;;;;;6.00;4.80;;;;;;;9.60;81.96;101155.14;102815;276;96501;-57
2023/08/12 03:22:01;;;;;;;6.30;4.40;;;;;;;9.59;82.01;101155.80;102768;276;97202;-55
2023/08/12 03:24:38;;;;;;;7.20;4.50;;;;;;;9.60;82.05;101160.77;102764;276;121397;-54
2023/08/12 03:27:18;;;;;;;7.10;4.20;;;;;;;9.61;82.09;101161.25;102738;276;104095;-54
2023/08/12 03:29:55;;;;;;;6.80;4.70;;;;;;;9.61;82.20;101163.41;102734;276;114270;-55
2023/08/12 03:32:34;;;;;;;6.90;4.80;;;;;;;9.61;82.30;101165.70;102774;276;96259;-57
2023/08/12 03:35:09;;;;;;;6.20;4.60;;;;;;;9.68;82.20;101167.64;102779;276;98611;-57
2023/08/12 03:37:47;;;;;;;5.90;4.30;;;;;;;9.75;82.17;101163.04;102834;276;120579;-57
2023/08/12 03:40:22;;;;;;;7.30;4.60;;;;;;;9.80;82.22;101162.84;102805;276;103442;-57
2023/08/12 03:42:56;;;;;;;6.30;4.20;;;;;;;9.83;82.27;101165.62;102725;276;114078;-55
2023/08/12 03:45:30;;;;;;;6.70;4.70;;;;;;;9.88;82.35;101162.89;102737;276;97266;-55
2023/08/12 03:48:06;;;;;;;7.00;4.40;;;;;;;9.95;82.20;101167.33;102795;276;97999;-57
2023/08/12 03:50:45;;;;;;;6.50;4.00;;;;;;;10.02;82.25;101168.34;102816;276;119400;-57
2023/08/12 03:53:20;;;;;;;6.10;4.10;;;;;;;10.12;82.26;101167.50;102814;276;103709;-55
2023/08/12 03:55:57;;;;;;;6.20;4.40;;;;;;;10.20;82.43;101163.94;102820;276;114360;-56
2023/08/12 03:58:38;;;;;;;7.50;3.90;;;;;;;10.34;82.40;101158.81;102786;276;97347;-53
2023/08/12 04:01:17;;;;;;;7.50;4.50;;;;;;;10.83;82.23;101158.23;102844;276;97003;-54
2023/08/12 04:03:54;;;;;;;7.40;4.50;;;;;;;11.27;82.01;101160.79;102755;276;120313;-54
2023/08/12 04:06:40;;;;;;;6.20;4.10;;;;;;;11.26;81.71;101161.63;102794;276;105154;-57
2023/08/12 04:09:22;;;;;;;8.50;4.50;;;;;;;11.47;81.58;101158.48;102760;276;113217;-57
2023/08/12 04:12:03;;;;;;;5.40;4.30;;;;;;;11.56;81.82;101158.68;102765;276;96310;-56
2023/08/12 04:14:40;;;;;;;6.30;4.40;;;;;;;11.54;81.85;101157.33;102762;276;97259;-58
2023/08/12 04:17:16;;;;;;;6.10;4.10;;;;;;;11.50;82.14;101158.30;102796;276;120297;-58
2023/08/12 04:19:53;;;;;;;;;;;;;;;11.54;82.15;101155.85;102814;276;106147;-57
2023/08/12 04:22:32;;;;;;;7.00;4.10;;;;;;;11.62;82.22;101159.77;102749;276;114468;-56
2023/08/12 04:25:09;;;;;;;7.70;4.30;;;;;;;11.74;82.21;101155.19;102716;276;95956;-55
2023/08/12 04:27:49;;;;;;;7.20;4.10;;;;;;;11.83;82.20;101153.20;102786;276;97063;-55
2023/08/12 04:30:27;;;;;;;12.40;4.50;;;;;;;11.96;81.94;101154.16;102737;276;120296;-56
2023/08/12 04:33:04;;;;;;;8.90;4.40;;;;;;;12.05;82.09;101158.64;102757;276;104568;-56
2023/08/12 04:35:41;;;;;;;8.40;5.00;;;;;;;12.16;82.16;101155.52;102728;276;114374;-55
2023/08/12 04:38:19;;;;;;;7.70;5.10;;;;;;;12.30;82.03;101155.33;102745;276;94525;-56
2023/08/12 04:40:57;;;;;;;6.50;5.10;;;;;;;12.44;82.01;101158.02;102696;276;98556;-55
2023/08/12 04:43:36;;;;;;;8.10;5.20;;;;;;;12.56;82.07;101156.86;102765;276;120466;-56
2023/08/12 04:46:15;;;;;;;11.30;5.20;;;;;;;12.72;81.91;101157.30;102769;276;105901;-58
2023/08/12 04:48:52;;;;;;;8.50;5.50;;;;;;;12.86;81.83;101155.23;102749;276;113647;-57
2023/08/12 04:51:36;;;;;;;10.20;5.80;;;;;;;13.11;81.56;101153.80;102760;264;94223;-53
2023/08/12 04:54:10;;;;;;;8.20;5.90;;;;;;;13.82;80.87;101153.73;102708;276;97051;-54
2023/08/12 04:56:49;;;;;;;13.90;6.10;;;;;;;15.10;79.81;101147.14;102815;276;121331;-54
2023/08/12 04:59:29;;;;;;;9.50;5.70;;;;;;;17.28;78.68;101142.48;102793;276;105416;-53
2023/08/12 05:02:13;;;;;;;8.60;5.90;;;;;;;19.45;76.42;101132.15;102786;276;115072;-55
2023/08/12 05:05:02;;;;;;;8.60;5.60;;;;;;;20.81;73.25;101125.56;102800;276;95030;-54
2023/08/12 05:07:38;;;;;;;12.20;5.90;;;;;;;21.96;70.55;101128.52;102849;276;96468;-56
2023/08/12 05:10:16;;;;;;;7.60;4.80;;;;;;;21.60;68.22;101129.33;102796;276;121374;-55
2023/08/12 05:12:55;;;;;;;8.90;5.60;;;;;;;20.68;67.12;101123.60;102920;276;104076;-58
2023/08/12 05:15:32;;;;;;;12.10;5.90;;;;;;;20.16;66.88;101129.63;102932;276;114566;-58
2023/08/12 05:18:15;;;;;;;9.00;5.20;;;;;;;19.84;66.51;101134.62;102859;276;94976;-55
2023/08/12 05:20:56;;;;;;;7.50;5.00;;;;;;;19.26;66.89;101134.60;102798;276;97303;-55
2023/08/12 05:23:39;;;;;;;8.00;5.20;;;;;;;18.93;66.99;101129.89;102787;276;120998;-55
2023/08/12 05:26:16;;;;;;;11.20;5.40;;;;;;;18.74;67.28;101130.56;102872;276;104506;-57
2023/08/12 05:28:51;;;;;;;8.20;5.00;;;;;;;18.76;67.47;101126.62;103029;276;113948;-58
2023/08/12 05:31:30;;;;;;;7.10;4.90;;;;;;;19.02;67.55;101121.38;102967;276;94626;-54
2023/08/12 05:34:10;;;;;;;8.60;4.60;;;;;;;20.41;66.62;101121.15;102800;276;98534;-53
2023/08/12 05:36:52;;;;;;;8.70;4.40;;;;;;;21.90;64.82;101118.94;102846;276;120821;-54
2023/08/12 05:39:36;;;;;;;8.40;5.20;;;;;;;23.64;62.61;101115.05;102766;276;105995;-54
2023/08/12 05:42:17;;;;;;;7.60;5.60;;;;;;;25.51;60.21;101112.35;102864;276;114696;-57
2023/08/12 05:44:57;;;;;;;7.60;4.40;;;;;;;27.06;57.76;101105.86;102985;276;93825;-58
2023/08/12 05:47:33;;;;;;;6.80;4.50;;;;;;;28.24;55.62;101105.11;102830;276;97615;-56
2023/08/12 05:50:09;;;;;;;7.90;4.60;;;;;;;28.94;53.37;101103.30;102814;276;120407;-56
2023/08/12 05:52:44;;;;;;;7.70;4.70;;;;;;;29.82;51.33;101103.27;103006;276;105039;-58
2023/08/12 05:55:20;;;;;;;6.30;3.80;;;;;;;30.62;49.74;101098.35;103028;276;114197;-58
2023/08/12 05:57:58;;;;;;;5.10;3.60;;;;;;;31.31;47.51;101095.61;102857;276;94991;-56
2023/08/12 06:00:37;;;;;;;6.10;3.60;;;;;;;31.76;44.91;101092.45;102803;276;97604;-56
2023/08/12 06:03:22;;;;;;;5.00;3.80;;;;;;;31.94;43.72;101091.52;102810;276;121137;-56
2023/08/12 06:05:59;;;;;;;6.10;3.60;;;;;;;32.37;42.77;101091.58;102800;276;106596;-55
2023/08/12 06:08:35;;;;;;;7.10;4.10;;;;;;;32.66;41.48;101097.40;102759;276;115289;-56
2023/08/12 06:11:13;;;;;;;5.70;3.70;;;;;;;33.13;40.79;101095.91;102815;276;94016;-58
2023/08/12 06:13:49;;;;;;;5.80;4.30;;;;;;;33.80;39.67;101091.91;102899;276;97891;-59
2023/08/12 06:16:26;;;;;;;5.50;3.90;;;;;;;34.14;38.26;101091.78;102828;276;120452;-55
2023/08/12 06:19:08;;;;;;;4.40;3.30;;;;;;;34.66;37.65;101090.23;102795;276;105819;-55
2023/08/12 06:21:48;;;;;;;8.20;4.00;;;;;;;35.13;36.40;101093.08;102808;276;114663;-55
2023/08/12 06:24:27;;;;;;;7.50;3.90;;;;;;;35.22;35.37;101091.02;102790;276;93637;-55
2023/08/12 06:27:04;;;;;;;5.00;3.50;;;;;;;35.40;35.21;101092.45;102821;276;96670;-54
2023/08/12 06:29:48;;;;;;;4.70;4.00;;;;;;;35.36;34.42;101091.78;102797;276;121403;-52
2023/08/12 06:32:24;;;;;;;6.90;4.00;;;;;;;35.21;33.52;101093.40;102808;276;106258;-55
2023/08/12 06:35:06;;;;;;;6.70;3.90;;;;;;;35.39;33.80;101094.97;102758;276;114948;-55
2023/08/12 06:37:43;;;;;;;5.90;3.50;;;;;;;34.45;33.63;101098.83;102831;276;94792;-55
2023/08/12 06:40:21;;;;;;;6.20;3.10;;;;;;;34.31;33.73;101100.68;102786;276;97686;-56
2023/08/12 06:42:59;;;;;;;5.40;3.10;;;;;;;34.76;32.99;101101.19;102836;276;120516;-58
2023/08/12 06:45:41;;;;;;;4.40;3.10;;;;;;;35.18;32.10;101100.98;102787;276;105642;-57
2023/08/12 06:48:21;;;;;;;5.80;3.00;;;;;;;35.37;31.95;101100.04;102764;264;114194;-57
2023/08/12 06:51:06;;;;;;;6.70;3.00;;;;;;;35.21;31.49;101095.48;102779;276;94450;-56
2023/08/12 06:53:40;;;;;;;;;;;;;;;35.04;31.18;101091.77;102832;276;96630;-58
2023/08/12 06:56:20;;;;;;;5.30;2.80;;;;;;;33.55;31.40;101091.45;102771;276;120624;-61
2023/08/12 06:58:56;;;;;;;5.00;2.80;;;;;;;32.11;32.58;101092.61;102770;276;105625;-66
2023/08/12 07:01:35;;;;;;;6.60;3.00;;;;;;;30.85;33.45;101099.66;102798;276;114835;-55
2023/08/12 07:04:10;;;;;;;4.10;2.40;;;;;;;30.31;34.30;101098.02;102756;276;95626;-55
2023/08/12 07:06:48;;;;;;;4.80;2.40;;;;;;;30.24;34.27;101099.46;102806;276;97906;-53
2023/08/12 07:09:25;;;;;;;5.00;2.50;;;;;;;29.74;34.59;101101.04;102756;276;121419;-53
2023/08/12 07:12:02;;;;;;;5.00;2.70;;;;;;;29.19;35.30;101098.80;102781;276;105285;-54
2023/08/12 07:14:38;;;;;;;4.70;2.20;;;;;;;29.14;35.26;101097.58;102747;276;114685;-54
2023/08/12 07:17:15;;;;;;;4.00;2.40;;;;;;;29.47;34.67;101099.71;102776;276;94796;-53
2023/08/12 07:19:57;;;;;;;5.30;2.70;;;;;;;29.99;33.93;101099.02;102789;276;97695;-54
2023/08/12 07:22:36;;;;;;;3.40;2.10;;;;;;;29.97;32.49;101096.15;102796;276;121166;-55
2023/08/12 07:25:12;;;;;;;4.00;2.30;;;;;;;30.61;32.49;101093.95;102733;276;105747;-55
2023/08/12 07:27:51;;;;;;;3.60;2.00;;;;;;;31.27;32.20;101088.05;102765;276;114124;-54
2023/08/12 07:30:28;;;;;;;7.20;2.20;;;;;;;31.83;31.80;101087.63;102748;276;94312;-55
2023/08/12 07:33:09;;;;;;;3.50;2.20;;;;;;;32.35;31.73;101087.38;102775;276;97680;-52
2023/08/12 07:35:45;;;;;;;4.00;2.50;;;;;;;32.94;31.61;101083.32;102762;276;121413;-53
2023/08/12 07:38:25;;;;;;;5.10;2.00;;;;;;;33.71;31.19;101079.80;102767;276;105145;-56
2023/08/12 07:41:01;;;;;;;3.50;2.40;;;;;;;33.99;30.31;101077.02;102795;276;114676;-56
2023/08/12 07:43:40;;;;;;;7.50;2.30;;;;;;;34.34;30.13;101075.23;102785;276;92179;-56
2023/08/12 07:46:20;;;;;;;3.50;1.90;;;;;;;35.27;29.48;101075.41;102768;276;97857;-56
2023/08/12 07:48:57;;;;;;;10.30;2.20;;;;;;;36.26;28.61;101067.36;102768;276;120320;-55
2023/08/12 07:51:43;;;;;;;3.80;2.10;;;;;;;36.88;27.96;101062.48;102807;276;104267;-53
2023/08/12 07:54:25;;;;;;;3.80;1.90;;;;;;;37.50;27.09;101059.27;102787;276;114553;-52
2023/08/12 07:57:02;;;;;;;4.00;2.10;;;;;;;37.97;26.34;101059.88;102829;276;94102;-58
2023/08/12 07:59:40;;;;;;;3.20;2.00;;;;;;;38.44;25.84;101061.34;102965;276;97813;-58
2023/08/12 08:02:20;;;;;;;4.00;2.10;;;;;;;38.69;24.72;101060.45;102887;268;121167;-56
2023/08/12 08:04:55;;;;;;;3.30;2.20;;;;;;;38.77;24.62;101058.83;102828;276;103378;-55
2023/08/12 08:07:37;;;;;;;2.40;1.70;;;;;;;38.75;24.28;101057.61;102970;276;113758;-58
2023/08/12 08:10:13;;;;;;;4.40;2.10;;;;;;;38.95;24.03;101060.98;102935;276;94787;-58
2023/08/12 08:12:49;;;;;;;3.10;1.70;;;;;;;39.07;23.39;101049.04;102797;276;97847;-53
2023/08/12 08:15:28;;;;;;;3.60;2.20;;;;;;;39.04;23.11;101054.45;102738;276;119030;-52
2023/08/12 08:18:05;;;;;;;3.20;2.00;;;;;;;38.47;22.74;101050.52;102778;276;105885;-53
2023/08/12 08:20:45;;;;;;;2.60;1.90;;;;;;;38.48;23.42;101050.73;102750;276;115263;-52
2023/08/12 08:23:20;;;;;;;3.60;1.90;;;;;;;38.82;22.74;101047.89;102776;276;93005;-55
2023/08/12 08:25:57;;;;;;;4.80;2.10;;;;;;;38.87;22.29;101041.42;102775;276;96743;-56
2023/08/12 08:28:34;;;;;;;3.90;2.00;;;;;;;38.91;22.49;101040.93;102911;276;119950;-58
2023/08/12 08:31:09;;;;;;;3.10;1.50;;;;;;;38.61;22.32;101038.02;102940;276;105718;-56
2023/08/12 08:33:46;;;;;;;5.40;2.00;;;;;;;39.06;22.45;101037.61;102733;276;114540;-55
2023/08/12 08:36:21;;;;;;;4.10;2.00;;;;;;;39.35;22.56;101037.86;102825;276;94612;-55
2023/08/12 08:38:59;;;;;;;3.20;1.80;;;;;;;39.08;21.82;101038.23;102738;276;98179;-56
2023/08/12 08:41:41;;;;;;;5.10;2.00;;;;;;;38.96;21.55;101033.48;102810;276;121038;-55
2023/08/12 08:44:18;;;;;;;3.10;1.80;;;;;;;39.09;21.56;101035.02;102761;276;106033;-55
2023/08/12 08:46:56;;;;;;;2.70;1.70;;;;;;;39.09;21.71;101033.90;102830;276;114034;-57
2023/08/12 08:49:36;;;;;;;5.00;2.20;;;;;;;39.02;21.49;101036.61;102923;276;93700;-57
2023/08/12 08:52:13;;;;;;;4.80;2.20;;;;;;;38.46;21.37;101031.61;102803;276;97937;-51
2023/08/12 08:54:54;;;;;;;3.10;1.80;;;;;;;38.17;21.31;101032.50;102772;276;120779;-52
2023/08/12 08:57:30;;;;;;;5.80;2.80;;;;;;;37.83;21.68;101029.35;102791;276;105822;-55
2023/08/12 09:00:10;;;;;;;5.40;2.90;;;;;;;37.70;21.79;101027.36;102747;276;114120;-55
2023/08/12 09:02:50;;;;;;;4.40;2.50;;;;;;;37.91;21.53;101029.28;102796;276;95506;-55
2023/08/12 09:05:26;;;;;;;4.00;2.20;;;;;;;38.03;21.57;101029.73;102805;276;97290;-55
2023/08/12 09:08:10;;;;;;;4.20;2.00;;;;;;;37.46;21.77;101025.23;102997;276;119190;-57
2023/08/12 09:10:51;;;;;;;4.90;2.20;;;;;;;37.78;21.91;101020.17;102951;276;106723;-57
2023/08/12 09:13:33;;;;;;;3.70;1.80;;;;;;;37.17;21.64;101014.43;102750;276;113142;-56
2023/08/12 09:16:14;;;;;;;4.80;1.80;;;;;;;37.02;22.01;101015.16;102789;276;92707;-57
2023/08/12 09:19:00;;;;;;;5.50;1.90;;;;;;;36.66;22.44;101013.16;102931;276;97473;-58
2023/08/12 09:21:42;;;;;;;3.20;1.90;;;;;;;36.06;22.76;101014.06;102854;276;119554;-55
2023/08/12 09:24:27;;;;;;;3.20;2.20;;;;;;;35.36;23.52;101007.34;102784;276;105461;-54
2023/08/12 09:27:04;;;;;;;3.90;1.90;;;;;;;34.84;24.36;101008.58;102846;276;114766;-56
2023/08/12 09:29:46;;;;;;;3.30;1.80;;;;;;;34.53;24.79;101005.86;102813;276;94291;-55
2023/08/12 09:32:26;;;;;;;4.10;1.80;;;;;;;34.04;24.61;101007.95;102822;276;97908;-52
2023/08/12 09:35:18;;;;;;;4.80;1.90;;;;;;;33.45;25.00;101004.93;102763;276;120901;-53
2023/08/12 09:37:55;;;;;;;5.40;1.80;;;;;;;32.91;25.77;101003.20;102799;276;106172;-55
2023/08/12 09:40:31;;;;;;;6.10;2.00;;;;;;;32.59;26.20;101000.75;102772;276;114548;-55
2023/08/12 09:43:15;;;;;;;3.80;1.80;;;;;;;32.01;26.21;100999.79;102799;276;92304;-55
2023/08/12 09:45:59;;;;;;;2.70;1.80;;;;;;;31.34;26.20;100997.27;102822;276;96309;-55
2023/08/12 09:48:35;;;;;;;5.20;2.00;;;;;;;31.15;26.87;100999.80;102775;276;119469;-57
2023/08/12 09:51:14;;;;;;;5.00;1.80;;;;;;;30.95;27.00;100996.80;102856;276;105768;-57
2023/08/12 09:53:53;;;;;;;3.00;1.70;;;;;;;30.40;27.70;100997.38;102931;276;114244;-58
2023/08/12 09:56:39;;;;;;;3.50;1.80;;;;;;;30.15;28.05;100996.48;102972;276;93611;-54
2023/08/12 09:59:20;;;;;;;3.10;1.80;;;;;;;30.08;28.15;100991.76;102830;276;97055;-54
2023/08/12 10:01:55;;;;;;;3.00;1.90;;;;;;;29.92;28.37;100989.63;102862;276;120319;-55
2023/08/12 10:04:41;;;;;;;3.30;1.70;;;;;;;29.60;28.27;100987.63;102843;276;104493;-55
2023/08/12 10:07:21;;;;;;;3.50;1.60;;;;;;;29.40;28.58;100984.59;102791;276;114175;-55
2023/08/12 10:10:00;;;;;;;2.70;1.80;;;;;;;29.38;28.83;100986.06;102776;276;94461;-56
2023/08/12 10:12:38;;;;;;;4.80;1.90;;;;;;;28.82;28.66;100980.31;103004;276;98673;-58
2023/08/12 10:15:22;;;;;;;6.00;1.70;;;;;;;28.93;29.44;100978.23;103078;276;119280;-58
2023/08/12 10:18:06;;;;;;;3.90;2.00;;;;;;;29.09;29.90;100976.58;102886;276;104607;-56
2023/08/12 10:20:46;;;;;;;4.50;1.70;;;;;;;29.24;30.14;100974.39;102785;276;114317;-54
2023/08/12 10:23:30;;;;;;;5.40;1.90;;;;;;;29.49;29.92;100975.28;102829;276;94110;-54
2023/08/12 10:26:09;;;;;;;4.40;2.10;;;;;;;29.59;29.64;100978.58;102836;276;98275;-55
2023/08/12 10:28:49;;;;;;;4.00;2.00;;;;;;;29.56;30.27;100972.22;102779;276;119856;-55
2023/08/12 10:31:29;;;;;;;3.90;1.90;;;;;;;29.60;30.31;100973.77;102792;276;104983;-55
2023/08/12 10:34:08;;;;;;;4.60;1.90;;;;;;;29.50;30.10;100970.13;102785;276;115532;-56
2023/08/12 10:36:47;;;;;;;3.50;2.00;;;;;;;29.15;29.79;100962.04;102811;276;92154;-55
2023/08/12 10:39:28;;;;;;;4.50;2.00;;;;;;;28.86;29.46;100962.58;102834;276;98335;-55
2023/08/12 10:42:07;;;;;;;2.80;1.80;;;;;;;28.70;29.42;100958.30;102934;276;120176;-58
2023/08/12 10:44:55;;;;;;;5.50;1.60;;;;;;;28.42;29.88;100953.25;102992;276;104429;-58
2023/08/12 10:47:34;;;;;;;3.70;2.10;;;;;;;28.64;30.80;100952.03;102995;276;113481;-58
2023/08/12 10:50:26;;;;;;;3.80;2.10;;;;;;;28.87;30.94;100949.89;102982;276;93901;-58
2023/08/12 10:53:24;;;;;;;3.30;1.70;;;;;;;29.05;30.98;100947.20;102574;276;99288;-54
2023/08/12 10:56:12;;;;;;;4.90;1.80;;;;;;;29.17;30.61;100945.23;102795;276;120848;-54
2023/08/12 10:58:54;;;;;;;4.30;1.60;;;;;;;29.18;30.57;100942.34;102799;276;105214;-53
2023/08/12 11:01:38;;;;;;;4.10;2.00;;;;;;;29.23;30.59;100941.84;102782;276;115516;-55
2023/08/12 11:04:25;;;;;;;3.20;1.80;;;;;;;29.30;30.49;100942.10;102726;276;93832;-55
2023/08/12 11:07:19;;;;;;;3.30;1.70;;;;;;;28.94;30.18;100940.83;102781;276;98494;-55
2023/08/12 11:10:05;;;;;;;3.10;1.70;;;;;;;28.79;30.66;100935.79;102746;276;119983;-56
2023/08/12 11:12:41;;;;;;;3.30;1.80;;;;;;;28.98;30.82;100931.76;102813;276;104796;-54
2023/08/12 11:15:16;;;;;;;3.00;1.70;;;;;;;29.10;30.84;100927.59;102273;276;465628;-53
2023/08/12 11:17:55;;;;;;;3.40;1.80;;;;;;;29.19;30.46;100925.68;102924;276;94133;-58
2023/08/12 11:20:38;;;;;;;3.50;1.80;;;;;;;29.18;30.31;100925.36;103068;276;97713;-57
2023/08/12 11:23:20;;;;;;;4.50;2.30;;;;;;;29.27;30.47;100925.66;102962;276;121089;-58
2023/08/12 11:26:01;;;;;;;4.10;1.70;;;;;;;29.31;30.62;100925.92;102969;276;104745;-56
2023/08/12 11:28:38;;;;;;;3.30;1.60;;;;;;;28.90;30.45;100919.80;102747;276;114960;-55
2023/08/12 11:31:18;;;;;;;4.10;1.90;;;;;;;28.76;30.65;100917.47;102802;264;95230;-55
2023/08/12 11:33:56;;;;;;;3.50;1.80;;;;;;;28.84;30.68;100916.20;102773;276;97689;-55
2023/08/12 11:36:31;;;;;;;3.80;2.10;;;;;;;28.64;30.77;100913.33;102814;276;121199;-55
2023/08/12 11:39:11;;;;;;;4.10;1.70;;;;;;;28.56;30.77;100913.91;102727;276;105069;-55
2023/08/12 11:41:50;;;;;;;3.90;1.60;;;;;;;28.53;30.76;100910.88;102763;276;113557;-56
2023/08/12 11:44:27;;;;;;;4.30;1.90;;;;;;;28.49;30.87;100910.86;102767;276;94645;-55
2023/08/12 11:47:04;;;;;;;3.70;1.70;;;;;;;28.34;30.65;100912.05;102939;276;97591;-58
2023/08/12 11:49:38;;;;;;;5.60;2.20;;;;;;;28.28;30.87;100907.93;103040;276;121636;-57
2023/08/12 11:52:20;;;;;;;4.20;1.90;;;;;;;28.43;31.52;100906.05;103096;276;105680;-58
2023/08/12 11:55:00;;;;;;;4.30;2.10;;;;;;;28.47;31.51;100901.33;102982;276;113388;-59
2023/08/12 11:57:42;;;;;;;3.50;1.70;;;;;;;28.50;31.35;100899.52;102995;276;92572;-58
2023/08/12 12:00:23;;;;;;;3.20;1.50;;;;;;;28.49;31.56;100899.30;102999;276;97162;-58
2023/08/12 12:02:58;;;;;;;2.70;1.70;;;;;;;28.47;31.53;100896.61;102843;276;119839;-54
2023/08/12 12:05:36;;;;;;;4.60;1.60;;;;;;;28.52;31.34;100894.92;102829;276;105726;-53
2023/08/12 12:08:15;;;;;;;3.80;2.60;;;;;;;28.43;31.21;100891.20;102993;276;114707;-58
2023/08/12 12:11:04;;;;;;;5.00;1.80;;;;;;;28.22;30.90;100884.38;102992;276;93886;-58
2023/08/12 12:13:45;;;;;;;3.60;1.70;;;;;;;28.16;31.03;100881.17;102811;276;97500;-56
2023/08/12 12:16:27;;;;;;;3.70;1.40;;;;;;;28.13;30.96;100877.92;102832;276;121595;-54
2023/08/12 12:19:07;;;;;;;5.30;2.90;;;;;;;28.14;31.68;100875.92;102840;276;105450;-55